Time;durP1;ratioP1;P1;durP2;ratioP2;P2;SDS_P1;SDS_P2;PMS_P1;PMS_P2;Temp;Humidity;BMP_temperature;BMP_pressure;BME280_temperature;BME280_humidity;BME280_pressure;Samples;Min_cycle;Max_cycle;Signal;HPM_P1;HPM_P2
2024/01/03 00:01:21;;;;;;;817.97;753.10;;;8.30;99.90;;;;;;5044697;28;20144;-81
2024/01/03 00:03:48;;;;;;;874.50;801.40;;;8.20;99.90;;;;;;5045373;28;20481;-82
2024/01/03 00:06:15;;;;;;;898.17;820.83;;;8.20;99.90;;;;;;5061037;28;20067;-82
2024/01/03 00:08:43;;;;;;;885.28;809.55;;;8.20;99.90;;;;;;5040965;28;20522;-82
2024/01/03 00:11:18;;;;;;;854.53;783.55;;;8.20;99.90;;;;;;5013065;28;20088;-81
2024/01/03 00:14:04;;;;;;;865.80;793.13;;;8.20;99.90;;;;;;5046997;28;20095;-81
2024/01/03 00:16:30;;;;;;;816.13;749.92;;;8.10;99.90;;;;;;5043794;28;20049;-81
2024/01/03 00:18:58;;;;;;;928.83;844.67;;;8.10;99.90;;;;;;5062560;28;20052;-81
2024/01/03 00:21:26;;;;;;;972.75;878.67;;;8.10;99.90;;;;;;5044373;28;20056;-81
2024/01/03 00:23:58;;;;;;;1174.53;979.45;;;8.20;99.90;;;;;;5039013;28;20060;-81
2024/01/03 00:26:25;;;;;;;944.13;855.80;;;8.10;99.90;;;;;;5036556;28;20064;-81
2024/01/03 00:28:51;;;;;;;846.17;775.33;;;8.20;99.90;;;;;;5034482;28;20056;-81
2024/01/03 00:31:30;;;;;;;989.83;890.92;;;8.10;99.90;;;;;;5046036;28;20049;-81
2024/01/03 00:33:56;;;;;;;863.30;791.08;;;8.10;99.90;;;;;;5049196;28;20060;-81
2024/01/03 00:36:22;;;;;;;970.42;878.53;;;8.10;99.90;;;;;;5047620;28;20045;-81
2024/01/03 00:38:48;;;;;;;956.10;863.72;;;8.10;99.90;;;;;;5082922;28;20053;-81
2024/01/03 00:41:14;;;;;;;884.95;809.85;;;8.10;99.90;;;;;;5051775;28;20049;-80
2024/01/03 00:43:40;;;;;;;911.28;829.60;;;8.10;99.90;;;;;;5049860;28;20501;-81
2024/01/03 00:46:08;;;;;;;887.33;810.47;;;8.10;99.90;;;;;;5048516;28;20041;-81
2024/01/03 00:48:34;;;;;;;941.28;854.15;;;8.10;99.90;;;;;;5062131;28;20088;-81
2024/01/03 00:51:01;;;;;;;859.85;788.92;;;8.00;99.90;;;;;;5037895;28;20060;-81
2024/01/03 00:53:28;;;;;;;894.55;815.22;;;8.00;99.90;;;;;;5035073;28;20382;-81
2024/01/03 00:55:54;;;;;;;852.05;780.10;;;8.00;99.90;;;;;;5081969;28;20496;-81
2024/01/03 00:58:20;;;;;;;1332.00;967.65;;;8.00;99.90;;;;;;5048168;28;20041;-81
2024/01/03 01:00:47;;;;;;;909.75;830.75;;;8.00;99.90;;;;;;5048899;28;20045;-81
2024/01/03 01:03:13;;;;;;;925.10;838.55;;;8.00;99.90;;;;;;5047880;28;20503;-82
2024/01/03 01:05:39;;;;;;;907.90;827.75;;;8.00;99.90;;;;;;5048223;28;20554;-81
2024/01/03 01:08:05;;;;;;;1054.88;924.75;;;7.90;99.90;;;;;;5047635;28;20056;-82
2024/01/03 01:10:31;;;;;;;951.50;865.70;;;8.00;99.90;;;;;;5036749;28;20046;-82
2024/01/03 01:12:57;;;;;;;1040.35;933.55;;;8.00;99.90;;;;;;5024201;28;20337;-82
2024/01/03 01:15:23;;;;;;;908.03;827.50;;;7.90;99.90;;;;;;5047992;28;20491;-81
2024/01/03 01:17:48;;;;;;;1999.90;999.90;;;8.00;99.90;;;;;;5047494;28;20060;-81
2024/01/03 01:20:14;;;;;;;879.50;802.45;;;8.00;99.90;;;;;;5047714;28;20124;-81
2024/01/03 01:22:40;;;;;;;1016.65;907.53;;;8.00;99.90;;;;;;5047438;28;20132;-81
2024/01/03 01:25:06;;;;;;;1082.60;918.70;;;7.90;99.90;;;;;;5047837;28;20139;-82
2024/01/03 01:27:32;;;;;;;929.60;844.90;;;8.00;99.90;;;;;;5081587;28;20136;-81
2024/01/03 01:29:58;;;;;;;859.90;790.00;;;8.00;99.90;;;;;;5032351;28;21072;-82
2024/01/03 01:32:23;;;;;;;872.55;799.38;;;8.00;99.90;;;;;;5047445;28;20067;-81
2024/01/03 01:34:49;;;;;;;1364.30;998.08;;;8.00;99.90;;;;;;5048246;28;20064;-81
2024/01/03 01:37:15;;;;;;;919.50;837.78;;;7.90;99.90;;;;;;5047105;28;20182;-82
2024/01/03 01:39:40;;;;;;;885.63;807.22;;;7.90;99.90;;;;;;5046850;28;20064;-81
2024/01/03 01:42:06;;;;;;;890.72;810.30;;;7.90;99.90;;;;;;5047380;28;20040;-81
2024/01/03 01:44:32;;;;;;;1181.40;971.40;;;8.00;99.90;;;;;;5045878;28;20079;-82
2024/01/03 01:46:58;;;;;;;816.65;750.90;;;8.00;99.90;;;;;;5044796;28;20064;-81
2024/01/03 01:49:26;;;;;;;1176.63;895.40;;;8.00;99.90;;;;;;5011911;28;20068;-82
2024/01/03 01:51:52;;;;;;;874.08;795.63;;;7.90;99.90;;;;;;5038726;28;20045;-82
2024/01/03 01:54:19;;;;;;;1056.60;904.78;;;8.00;99.90;;;;;;5023628;28;20056;-82
2024/01/03 01:56:46;;;;;;;1017.42;915.80;;;8.00;99.90;;;;;;5046756;28;20041;-81
2024/01/03 01:59:12;;;;;;;954.03;852.35;;;8.00;99.90;;;;;;5047783;28;20075;-82
2024/01/03 02:01:38;;;;;;;1042.22;920.67;;;8.10;99.90;;;;;;5029527;28;20041;-81
2024/01/03 02:04:05;;;;;;;896.40;816.75;;;8.00;99.90;;;;;;5049744;28;20036;-82
2024/01/03 02:06:32;;;;;;;1820.15;999.90;;;8.10;99.90;;;;;;5046288;28;20477;-82
2024/01/03 02:08:58;;;;;;;1008.45;903.78;;;8.10;99.90;;;;;;5046975;28;20041;-82
2024/01/03 02:11:24;;;;;;;948.35;857.60;;;8.10;99.90;;;;;;5030608;28;20044;-82
2024/01/03 02:13:49;;;;;;;895.25;816.30;;;8.10;99.90;;;;;;5048598;28;20083;-82
2024/01/03 02:16:15;;;;;;;1599.82;999.90;;;8.10;99.90;;;;;;5046267;28;20554;-82
2024/01/03 02:18:43;;;;;;;1346.50;999.90;;;8.10;99.90;;;;;;5047275;28;20053;-81
2024/01/03 02:21:15;;;;;;;980.08;883.45;;;8.10;99.90;;;;;;5044979;28;20492;-82
2024/01/03 02:23:41;;;;;;;956.78;865.92;;;8.00;99.90;;;;;;5026907;28;20401;-82
2024/01/03 02:26:08;;;;;;;1310.22;999.90;;;8.10;99.90;;;;;;5047038;28;20044;-83
2024/01/03 02:28:34;;;;;;;1161.15;992.88;;;8.10;99.90;;;;;;5030472;28;20080;-82
2024/01/03 02:31:00;;;;;;;776.80;715.88;;;8.10;99.90;;;;;;5030578;28;20048;-82
2024/01/03 02:33:26;;;;;;;1239.82;999.90;;;8.10;99.90;;;;;;5046556;28;20047;-82
2024/01/03 02:35:52;;;;;;;991.33;893.05;;;8.20;99.90;;;;;;5046276;28;20033;-82
2024/01/03 02:38:18;;;;;;;1285.15;973.45;;;8.20;99.90;;;;;;5046250;28;20151;-82
2024/01/03 02:40:44;;;;;;;1057.63;941.55;;;8.20;99.90;;;;;;5041821;28;20421;-81
2024/01/03 02:43:10;;;;;;;1003.90;887.22;;;8.30;99.90;;;;;;5030213;28;20045;-82
2024/01/03 02:45:36;;;;;;;1010.22;899.13;;;8.20;99.90;;;;;;5047040;28;20547;-82
2024/01/03 02:48:02;;;;;;;1042.10;929.10;;;8.30;99.90;;;;;;5035284;28;20060;-82
2024/01/03 02:50:28;;;;;;;1720.05;999.90;;;8.30;99.90;;;;;;5048662;28;20048;-82
2024/01/03 02:52:54;;;;;;;976.10;872.13;;;8.30;99.90;;;;;;5030005;28;20048;-82
2024/01/03 02:55:21;;;;;;;1236.07;991.25;;;8.40;99.90;;;;;;5046326;28;20045;-82
2024/01/03 02:57:46;;;;;;;873.38;798.55;;;8.30;99.90;;;;;;5079564;28;20084;-82
2024/01/03 03:00:13;;;;;;;960.92;867.60;;;8.30;99.90;;;;;;5046420;28;20075;-82
2024/01/03 03:02:39;;;;;;;1273.82;995.22;;;8.40;99.90;;;;;;5063206;28;20106;-82
2024/01/03 03:05:05;;;;;;;905.83;822.72;;;8.40;99.90;;;;;;5029439;28;20057;-81
2024/01/03 03:07:30;;;;;;;968.90;865.38;;;8.40;99.90;;;;;;5045483;28;20118;-83
2024/01/03 03:09:56;;;;;;;1009.33;902.38;;;8.50;99.90;;;;;;5017685;28;20033;-82
2024/01/03 03:12:22;;;;;;;831.92;763.70;;;8.50;99.90;;;;;;5045579;28;20071;-82
2024/01/03 03:14:49;;;;;;;1247.90;981.63;;;8.50;99.90;;;;;;5030032;28;20564;-82
2024/01/03 03:17:14;;;;;;;1126.85;943.35;;;8.50;99.90;;;;;;5046089;28;20165;-82
2024/01/03 03:19:40;;;;;;;1122.75;982.55;;;8.50;99.90;;;;;;5045378;28;20037;-82
2024/01/03 03:22:06;;;;;;;942.30;853.22;;;8.50;99.90;;;;;;5032539;28;20055;-83
2024/01/03 03:24:32;;;;;;;1011.50;910.53;;;8.50;99.90;;;;;;5044815;28;20056;-83
2024/01/03 03:26:57;;;;;;;952.10;858.03;;;8.60;99.90;;;;;;5047018;28;20052;-83
2024/01/03 03:29:23;;;;;;;925.10;839.22;;;8.60;99.90;;;;;;5010662;28;20401;-83
2024/01/03 03:31:49;;;;;;;816.88;747.88;;;8.60;99.90;;;;;;5042317;28;20174;-82
2024/01/03 03:34:17;;;;;;;908.75;827.83;;;8.60;99.90;;;;;;5062675;28;20147;-83
2024/01/03 03:36:46;;;;;;;944.97;855.80;;;8.50;99.90;;;;;;5044687;28;20074;-83
2024/01/03 03:39:11;;;;;;;882.22;806.55;;;8.50;99.90;;;;;;5028891;28;20049;-83
2024/01/03 03:41:37;;;;;;;958.28;867.40;;;8.50;99.90;;;;;;5032393;28;20116;-83
2024/01/03 03:44:03;;;;;;;994.85;895.50;;;8.50;99.90;;;;;;5037742;28;20075;-82
2024/01/03 03:46:30;;;;;;;1015.95;914.30;;;8.50;99.90;;;;;;5044489;28;20049;-83
2024/01/03 03:48:56;;;;;;;1049.97;937.17;;;8.50;99.90;;;;;;5033146;28;20114;-83
2024/01/03 03:51:22;;;;;;;875.53;796.90;;;8.50;99.90;;;;;;5045390;28;20476;-83
2024/01/03 03:53:48;;;;;;;1016.47;913.35;;;8.60;99.90;;;;;;5027885;28;20116;-83
2024/01/03 03:56:22;;;;;;;864.95;789.22;;;8.60;99.90;;;;;;5047263;28;20140;-83
2024/01/03 03:58:48;;;;;;;957.00;861.78;;;8.60;99.90;;;;;;5028962;28;20067;-83
2024/01/03 04:01:13;;;;;;;1059.88;948.50;;;8.60;99.90;;;;;;5028220;28;20434;-83
2024/01/03 04:03:39;;;;;;;1010.95;900.88;;;8.60;99.90;;;;;;5045043;28;20045;-83
2024/01/03 04:06:05;;;;;;;918.90;832.92;;;8.60;99.90;;;;;;5045950;28;20064;-84
2024/01/03 04:08:30;;;;;;;819.55;754.15;;;8.60;99.90;;;;;;5032378;28;20123;-83
2024/01/03 04:10:56;;;;;;;956.25;863.30;;;8.60;99.90;;;;;;5049504;28;20041;-83
2024/01/03 04:13:22;;;;;;;820.08;754.03;;;8.60;99.90;;;;;;5049567;28;20456;-83
2024/01/03 04:15:48;;;;;;;923.05;836.38;;;8.50;99.90;;;;;;5032078;28;20095;-83
2024/01/03 04:18:14;;;;;;;886.80;811.05;;;8.50;99.90;;;;;;5049096;28;20080;-83
2024/01/03 04:20:39;;;;;;;868.58;793.88;;;8.50;99.90;;;;;;5032539;28;20745;-83
2024/01/03 04:23:05;;;;;;;899.08;819.08;;;8.60;99.90;;;;;;5048631;28;20044;-83
2024/01/03 04:25:31;;;;;;;943.25;856.03;;;8.50;99.90;;;;;;5048693;28;20049;-84
2024/01/03 04:27:56;;;;;;;847.95;776.95;;;8.50;99.90;;;;;;5048990;28;20829;-84
2024/01/03 04:30:22;;;;;;;937.42;853.15;;;8.60;99.90;;;;;;5033154;28;20387;-83
2024/01/03 04:32:48;;;;;;;867.50;792.17;;;8.50;99.90;;;;;;5049261;28;20037;-83
2024/01/03 04:35:14;;;;;;;881.42;806.30;;;8.60;99.90;;;;;;5048138;28;20045;-83
2024/01/03 04:37:40;;;;;;;1016.05;911.10;;;8.60;99.90;;;;;;5031852;28;20041;-84
2024/01/03 04:40:06;;;;;;;931.58;843.75;;;8.60;99.90;;;;;;5049050;28;20051;-84
2024/01/03 04:42:32;;;;;;;909.83;830.25;;;8.60;99.90;;;;;;5048411;28;20091;-83
2024/01/03 04:44:58;;;;;;;892.97;812.15;;;8.60;99.90;;;;;;5049106;28;20148;-83
2024/01/03 04:47:23;;;;;;;1037.45;896.55;;;8.70;99.90;;;;;;5042600;28;20053;-83
2024/01/03 04:49:49;;;;;;;936.60;844.33;;;8.70;99.90;;;;;;5045989;28;20477;-84
2024/01/03 04:52:15;;;;;;;958.28;866.03;;;8.60;99.90;;;;;;5048048;28;20438;-83
2024/01/03 04:54:40;;;;;;;899.65;821.05;;;8.70;99.90;;;;;;5032474;28;20044;-83
2024/01/03 04:57:06;;;;;;;834.22;763.28;;;8.70;99.90;;;;;;5048290;28;20080;-84
2024/01/03 04:59:32;;;;;;;941.42;850.10;;;8.60;99.90;;;;;;5047821;28;20037;-84
2024/01/03 05:02:00;;;;;;;862.03;788.15;;;8.60;99.90;;;;;;5033519;28;20136;-83
2024/01/03 05:04:26;;;;;;;880.33;806.42;;;8.60;99.90;;;;;;5047730;28;20112;-83
2024/01/03 05:06:52;;;;;;;944.17;857.83;;;8.60;99.90;;;;;;5032041;28;20072;-84
2024/01/03 05:09:18;;;;;;;872.88;798.65;;;8.60;99.90;;;;;;5032543;28;20049;-84
2024/01/03 05:11:43;;;;;;;965.58;871.90;;;8.60;99.90;;;;;;5047686;28;20044;-84
2024/01/03 05:14:09;;;;;;;987.63;894.33;;;8.60;99.90;;;;;;5048602;28;20052;-83
2024/01/03 05:16:35;;;;;;;922.88;834.47;;;8.60;99.90;;;;;;5037135;28;20049;-84
2024/01/03 05:19:00;;;;;;;941.80;856.08;;;8.70;99.90;;;;;;5048433;28;20082;-84
2024/01/03 05:21:26;;;;;;;955.58;865.75;;;8.70;99.90;;;;;;5031254;28;20044;-84
2024/01/03 05:23:52;;;;;;;885.60;803.20;;;8.70;99.90;;;;;;5037656;28;20045;-83
2024/01/03 05:26:17;;;;;;;910.90;828.42;;;8.70;99.90;;;;;;5047848;28;20128;-84
2024/01/03 05:28:43;;;;;;;924.42;843.75;;;8.70;99.90;;;;;;5048355;28;20045;-84
2024/01/03 05:31:09;;;;;;;1041.65;932.53;;;8.70;99.90;;;;;;5030381;28;20086;-84
2024/01/03 05:33:34;;;;;;;1010.42;902.30;;;8.60;99.90;;;;;;5048595;28;20156;-84
2024/01/03 05:36:00;;;;;;;943.78;857.65;;;8.60;99.90;;;;;;5030617;28;20210;-84
2024/01/03 05:38:26;;;;;;;884.80;804.50;;;8.60;99.90;;;;;;5045950;28;20071;-84
2024/01/03 05:41:00;;;;;;;951.78;863.72;;;8.60;99.90;;;;;;5054479;28;20045;-85
2024/01/03 05:43:26;;;;;;;976.92;885.42;;;8.60;99.90;;;;;;5047831;28;20554;-84
2024/01/03 05:45:52;;;;;;;979.35;883.75;;;8.60;99.90;;;;;;5030392;28;20076;-84
2024/01/03 05:48:18;;;;;;;1658.88;999.90;;;8.50;99.90;;;;;;5017840;28;20077;-84
2024/01/03 05:50:43;;;;;;;964.95;878.35;;;8.50;99.90;;;;;;5068693;28;20029;-84
2024/01/03 05:53:09;;;;;;;854.15;782.22;;;8.40;99.90;;;;;;5047258;28;20079;-83
2024/01/03 05:55:35;;;;;;;836.63;769.55;;;8.30;99.90;;;;;;5063676;28;20481;-83
2024/01/03 05:58:00;;;;;;;868.90;794.03;;;8.40;99.90;;;;;;5048241;28;20118;-83
2024/01/03 06:00:26;;;;;;;898.10;817.58;;;8.30;99.90;;;;;;5080331;28;20043;-83
2024/01/03 06:02:52;;;;;;;921.22;839.33;;;8.30;99.90;;;;;;5065010;28;20052;-83
2024/01/03 06:05:19;;;;;;;865.00;793.78;;;8.20;99.90;;;;;;5081128;28;20115;-83
2024/01/03 06:07:47;;;;;;;1014.88;909.25;;;8.30;99.90;;;;;;5046343;28;20057;-83
2024/01/03 06:10:13;;;;;;;853.00;779.95;;;8.30;99.90;;;;;;5068197;28;20048;-83
2024/01/03 06:12:39;;;;;;;910.88;829.03;;;8.30;99.90;;;;;;5030984;28;20044;-84
2024/01/03 06:15:07;;;;;;;1055.95;943.38;;;8.30;99.90;;;;;;5047175;28;20049;-83
2024/01/03 06:17:32;;;;;;;944.60;854.50;;;8.40;99.90;;;;;;5047322;28;20060;-83
2024/01/03 06:19:58;;;;;;;1026.88;921.35;;;8.50;99.90;;;;;;5047882;28;20045;-83
2024/01/03 06:22:24;;;;;;;1367.82;999.90;;;8.50;99.90;;;;;;5029371;28;20152;-83
2024/01/03 06:24:49;;;;;;;1037.38;924.75;;;8.60;99.90;;;;;;5030806;28;20048;-83
2024/01/03 06:27:15;;;;;;;1011.53;910.95;;;8.70;99.90;;;;;;5011881;28;20402;-83
2024/01/03 06:29:42;;;;;;;1049.35;935.00;;;8.70;99.90;;;;;;5026569;28;20056;-83
2024/01/03 06:32:08;;;;;;;1018.55;911.88;;;8.60;99.90;;;;;;5030661;28;20041;-84
2024/01/03 06:34:34;;;;;;;1001.03;898.00;;;8.70;99.90;;;;;;5045753;28;20172;-83
2024/01/03 06:37:00;;;;;;;904.35;826.25;;;8.70;99.90;;;;;;5046727;28;20076;-83
2024/01/03 06:39:26;;;;;;;1062.43;940.15;;;8.70;99.90;;;;;;5046231;28;20057;-83
2024/01/03 06:41:52;;;;;;;943.50;855.95;;;8.70;99.90;;;;;;5047826;28;20045;-83
2024/01/03 06:44:18;;;;;;;910.95;832.88;;;8.70;99.90;;;;;;5063429;28;20404;-83
2024/01/03 06:46:43;;;;;;;882.92;804.75;;;8.70;99.90;;;;;;5046108;28;20036;-83
2024/01/03 06:49:09;;;;;;;860.65;784.30;;;8.70;99.90;;;;;;5080094;28;20083;-83
2024/01/03 06:51:35;;;;;;;1009.78;910.83;;;8.70;99.90;;;;;;5028868;28;20477;-84
2024/01/03 06:54:00;;;;;;;947.03;860.63;;;8.70;99.90;;;;;;5046908;28;20489;-83
2024/01/03 06:56:26;;;;;;;879.17;806.42;;;8.70;99.90;;;;;;5042463;28;20037;-83
2024/01/03 06:58:52;;;;;;;1095.28;946.45;;;8.70;99.90;;;;;;5046083;28;20602;-84
2024/01/03 07:01:18;;;;;;;943.58;859.38;;;8.70;99.90;;;;;;5062166;28;20773;-83
2024/01/03 07:03:44;;;;;;;1238.85;999.90;;;8.70;99.90;;;;;;5044766;28;20041;-83
2024/01/03 07:06:09;;;;;;;982.17;888.47;;;8.80;99.90;;;;;;5044809;28;20037;-82
2024/01/03 07:08:35;;;;;;;1038.03;923.17;;;8.80;99.90;;;;;;5045220;28;20041;-83
2024/01/03 07:11:01;;;;;;;888.70;810.28;;;8.80;99.90;;;;;;5044738;28;20106;-83
2024/01/03 07:13:27;;;;;;;1000.28;903.15;;;8.80;99.90;;;;;;5045720;28;20492;-83
2024/01/03 07:15:52;;;;;;;1006.22;907.40;;;8.80;99.90;;;;;;5062690;28;20041;-83
2024/01/03 07:18:18;;;;;;;951.92;864.65;;;8.80;99.90;;;;;;5045564;28;20048;-83
2024/01/03 07:20:44;;;;;;;911.85;829.58;;;8.70;99.90;;;;;;5046474;28;20159;-82
2024/01/03 07:23:12;;;;;;;823.47;758.35;;;8.70;99.90;;;;;;5028951;28;20149;-83
2024/01/03 07:25:37;;;;;;;882.47;808.75;;;8.70;99.90;;;;;;5044887;28;20132;-82
2024/01/03 07:28:06;;;;;;;855.67;782.78;;;8.60;99.90;;;;;;5080663;28;20137;-84
2024/01/03 07:30:32;;;;;;;900.47;820.83;;;8.60;99.90;;;;;;5028649;28;20033;-83
2024/01/03 07:32:58;;;;;;;840.35;772.38;;;8.60;99.90;;;;;;5046199;28;20195;-82
2024/01/03 07:35:24;;;;;;;825.55;757.90;;;8.60;99.90;;;;;;5045658;28;20071;-82
2024/01/03 07:37:50;;;;;;;1026.45;920.92;;;8.60;99.90;;;;;;5026107;28;20044;-83
2024/01/03 07:40:16;;;;;;;888.45;812.53;;;8.60;99.90;;;;;;5027585;28;20469;-82
2024/01/03 07:42:42;;;;;;;960.85;868.95;;;8.60;99.90;;;;;;5044867;28;20144;-83
2024/01/03 07:45:08;;;;;;;915.88;834.05;;;8.60;99.90;;;;;;5061290;28;20037;-82
2024/01/03 07:47:34;;;;;;;917.17;837.60;;;8.50;99.90;;;;;;5038164;28;20128;-82
2024/01/03 07:50:00;;;;;;;920.08;838.80;;;8.50;99.90;;;;;;5077273;28;20045;-82
2024/01/03 07:52:26;;;;;;;863.10;789.17;;;8.50;99.90;;;;;;5043775;28;20377;-82
2024/01/03 07:54:52;;;;;;;941.30;853.70;;;8.50;99.90;;;;;;5046018;28;20094;-83
2024/01/03 07:57:18;;;;;;;864.15;791.25;;;8.50;99.90;;;;;;5045104;28;20075;-82
2024/01/03 07:59:45;;;;;;;940.63;854.97;;;8.50;99.90;;;;;;5044372;28;20171;-82
2024/01/03 08:02:12;;;;;;;896.78;817.63;;;8.50;99.90;;;;;;5045421;28;20052;-82
2024/01/03 08:04:38;;;;;;;826.42;759.40;;;8.60;99.90;;;;;;5026603;28;20190;-82
2024/01/03 08:07:04;;;;;;;928.53;841.58;;;8.50;99.90;;;;;;5035849;28;20045;-82
2024/01/03 08:09:30;;;;;;;981.65;891.00;;;8.50;99.90;;;;;;5044382;28;20439;-82
2024/01/03 08:11:56;;;;;;;978.22;885.75;;;8.50;99.90;;;;;;5029476;28;20061;-82
2024/01/03 08:14:22;;;;;;;937.10;848.97;;;8.50;99.90;;;;;;5034155;28;20420;-82
2024/01/03 08:16:47;;;;;;;835.00;767.42;;;8.40;99.90;;;;;;5034291;28;20488;-82
2024/01/03 08:19:13;;;;;;;792.13;730.35;;;8.40;99.90;;;;;;5045188;28;20577;-82
2024/01/03 08:21:39;;;;;;;976.60;883.85;;;8.50;99.90;;;;;;5043546;28;20041;-82
2024/01/03 08:24:05;;;;;;;970.30;878.33;;;8.50;99.90;;;;;;5028773;28;20053;-82
2024/01/03 08:26:31;;;;;;;880.72;807.15;;;8.50;99.90;;;;;;5025347;28;20060;-82
2024/01/03 08:28:57;;;;;;;903.60;822.47;;;8.50;99.90;;;;;;5042752;28;20068;-81
2024/01/03 08:31:23;;;;;;;868.92;793.35;;;8.50;99.90;;;;;;5045298;28;20102;-82
2024/01/03 08:33:49;;;;;;;853.25;782.72;;;8.50;99.90;;;;;;5043983;28;20131;-82
2024/01/03 08:36:15;;;;;;;833.65;766.05;;;8.50;99.90;;;;;;5028074;28;20075;-81
2024/01/03 08:38:41;;;;;;;973.90;879.85;;;8.50;99.90;;;;;;5044628;28;20404;-82
2024/01/03 08:41:16;;;;;;;815.35;750.72;;;8.40;99.90;;;;;;5044145;28;20045;-82
2024/01/03 08:43:43;;;;;;;878.03;802.70;;;8.50;99.90;;;;;;5060760;28;20040;-82
2024/01/03 08:46:08;;;;;;;886.90;810.35;;;8.50;99.90;;;;;;5061979;28;20041;-81
2024/01/03 08:48:35;;;;;;;888.00;812.90;;;8.50;99.90;;;;;;5031227;28;20436;-82
2024/01/03 08:51:01;;;;;;;941.40;855.90;;;8.50;99.90;;;;;;5044551;28;20098;-82
2024/01/03 08:53:27;;;;;;;919.28;838.95;;;8.50;99.90;;;;;;5031010;28;20041;-82
2024/01/03 08:55:52;;;;;;;880.42;806.47;;;8.50;99.90;;;;;;5047565;28;20455;-82
2024/01/03 08:58:19;;;;;;;857.90;787.25;;;8.50;99.90;;;;;;5050327;28;20080;-81
2024/01/03 09:00:45;;;;;;;979.33;889.42;;;8.40;99.90;;;;;;5032137;28;20114;-82
2024/01/03 09:03:11;;;;;;;929.65;846.42;;;8.40;99.90;;;;;;5046895;28;20037;-82
2024/01/03 09:05:37;;;;;;;942.22;856.00;;;8.40;99.90;;;;;;5028844;28;20136;-82
2024/01/03 09:08:03;;;;;;;840.42;772.13;;;8.40;99.90;;;;;;5030074;28;20052;-82
2024/01/03 09:10:29;;;;;;;849.67;779.97;;;8.40;99.90;;;;;;5047532;28;20052;-82
2024/01/03 09:12:55;;;;;;;927.85;842.30;;;8.50;99.90;;;;;;5078849;28;20061;-82
2024/01/03 09:15:21;;;;;;;884.05;807.58;;;8.50;99.90;;;;;;5051665;28;20129;-82
2024/01/03 09:17:46;;;;;;;837.13;770.25;;;8.50;99.90;;;;;;5047363;28;20103;-82
2024/01/03 09:20:12;;;;;;;956.60;869.55;;;8.60;99.90;;;;;;5064728;28;20041;-83
2024/01/03 09:22:39;;;;;;;816.88;752.00;;;8.60;99.90;;;;;;5047456;28;20037;-82
2024/01/03 09:25:05;;;;;;;832.67;765.42;;;8.60;99.90;;;;;;5047842;28;20057;-82
2024/01/03 09:27:30;;;;;;;931.15;844.92;;;8.70;99.90;;;;;;5063819;28;20055;-81
2024/01/03 09:29:56;;;;;;;868.72;797.72;;;8.70;99.90;;;;;;5048360;28;20150;-81
2024/01/03 09:32:22;;;;;;;832.63;765.08;;;8.70;99.90;;;;;;5063195;28;20045;-81
2024/01/03 09:34:48;;;;;;;833.97;767.42;;;8.80;99.90;;;;;;5048525;28;20041;-82
2024/01/03 09:37:16;;;;;;;915.15;835.20;;;8.70;99.90;;;;;;5045885;28;20563;-82
2024/01/03 09:39:42;;;;;;;880.80;806.17;;;8.80;99.90;;;;;;5026062;28;20048;-82
2024/01/03 09:42:09;;;;;;;800.25;736.55;;;8.80;99.90;;;;;;5048164;28;20510;-82
2024/01/03 09:44:35;;;;;;;853.10;782.97;;;8.80;99.90;;;;;;5065252;28;20450;-82
2024/01/03 09:47:01;;;;;;;810.97;747.22;;;8.90;99.90;;;;;;5040107;28;20041;-82
2024/01/03 09:49:27;;;;;;;841.45;774.45;;;8.80;99.90;;;;;;5036792;28;20432;-82
2024/01/03 09:51:54;;;;;;;951.47;866.08;;;8.80;99.90;;;;;;5046614;28;20041;-82
2024/01/03 09:54:20;;;;;;;957.22;868.13;;;8.80;99.90;;;;;;5047070;28;20136;-82
2024/01/03 09:56:47;;;;;;;949.97;859.30;;;8.80;99.90;;;;;;5047120;28;20174;-82
2024/01/03 09:59:17;;;;;;;818.13;753.08;;;8.80;99.90;;;;;;5047125;28;20120;-82
2024/01/03 10:01:55;;;;;;;948.03;855.17;;;8.80;99.90;;;;;;5046836;28;20169;-82
2024/01/03 10:04:20;;;;;;;1009.42;901.72;;;8.80;99.90;;;;;;5029998;28;20506;-82
2024/01/03 10:06:52;;;;;;;951.40;860.10;;;8.80;99.90;;;;;;5045831;28;20072;-82
2024/01/03 10:09:19;;;;;;;940.78;854.17;;;8.80;99.90;;;;;;5063866;28;20045;-85
2024/01/03 10:11:45;;;;;;;808.95;742.53;;;8.90;99.90;;;;;;5048236;28;20640;-82
2024/01/03 10:14:18;;;;;;;814.78;750.83;;;8.90;99.90;;;;;;5079302;28;20048;-82
2024/01/03 10:16:44;;;;;;;819.28;752.80;;;8.90;99.90;;;;;;5047300;28;20045;-82
2024/01/03 10:19:15;;;;;;;786.45;724.58;;;8.90;99.90;;;;;;5046716;28;20107;-81
2024/01/03 10:21:47;;;;;;;838.58;768.88;;;8.90;99.90;;;;;;5062832;28;20049;-82
2024/01/03 10:24:13;;;;;;;900.47;821.03;;;9.00;99.90;;;;;;5063515;28;20049;-82
2024/01/03 10:26:38;;;;;;;888.53;812.88;;;9.10;99.90;;;;;;5046123;28;20830;-82
2024/01/03 10:29:09;;;;;;;890.85;814.35;;;9.10;99.90;;;;;;5046491;28;20156;-82
2024/01/03 10:31:34;;;;;;;911.65;830.47;;;9.20;99.90;;;;;;5030319;28;20119;-82
2024/01/03 10:34:01;;;;;;;834.00;766.53;;;9.20;99.90;;;;;;5045788;28;20140;-82
2024/01/03 10:36:28;;;;;;;945.72;860.75;;;9.10;99.90;;;;;;5045604;28;20099;-83
2024/01/03 10:38:56;;;;;;;883.92;807.53;;;9.10;99.90;;;;;;5047065;28;20049;-82
2024/01/03 10:41:21;;;;;;;963.25;872.15;;;9.10;99.90;;;;;;5046236;28;20045;-82
2024/01/03 10:43:49;;;;;;;913.60;832.75;;;9.00;99.90;;;;;;5046775;28;20401;-82
2024/01/03 10:46:16;;;;;;;834.55;766.15;;;8.90;99.90;;;;;;5062983;28;20053;-83
2024/01/03 10:48:42;;;;;;;847.95;778.60;;;8.90;99.90;;;;;;5032501;28;20488;-82
2024/01/03 10:51:12;;;;;;;864.05;792.03;;;8.90;99.90;;;;;;5045785;28;20036;-82
2024/01/03 10:53:42;;;;;;;899.35;817.97;;;8.80;99.90;;;;;;5029852;28;20087;-83
2024/01/03 10:56:09;;;;;;;839.55;771.10;;;8.80;99.90;;;;;;5028676;28;20537;-83
2024/01/03 10:58:40;;;;;;;864.33;792.92;;;8.70;99.90;;;;;;5046552;28;20095;-84
2024/01/03 11:01:16;;;;;;;893.33;815.05;;;8.70;99.90;;;;;;5046123;28;20426;-83
2024/01/03 11:04:03;;;;;;;902.75;823.97;;;8.70;99.90;;;;;;5034705;28;20049;-84
2024/01/03 11:06:36;;;;;;;943.63;857.53;;;8.80;99.90;;;;;;5061461;28;20112;-84
2024/01/03 11:09:03;;;;;;;906.90;827.38;;;8.80;99.90;;;;;;5079865;28;20051;-84
2024/01/03 11:11:29;;;;;;;837.92;770.92;;;8.80;99.90;;;;;;5045345;28;20094;-84
2024/01/03 11:13:57;;;;;;;867.20;796.28;;;8.90;99.90;;;;;;5046776;28;20052;-84
2024/01/03 11:16:40;;;;;;;943.95;852.80;;;9.10;99.90;;;;;;5061513;28;20782;-84
2024/01/03 11:19:08;;;;;;;786.38;724.72;;;9.20;99.90;;;;;;5029708;28;20443;-84
2024/01/03 11:21:35;;;;;;;806.22;742.97;;;9.30;99.90;;;;;;5045277;28;20457;-84
2024/01/03 11:24:02;;;;;;;857.40;782.38;;;9.30;99.90;;;;;;5037924;28;20132;-85
2024/01/03 11:27:03;;;;;;;862.22;788.90;;;9.40;99.90;;;;;;5056082;28;20064;-83
2024/01/03 11:29:35;;;;;;;760.22;700.75;;;9.50;99.90;;;;;;5045546;28;20056;-84
2024/01/03 11:32:03;;;;;;;793.22;730.90;;;9.50;99.90;;;;;;5045714;28;20041;-84
2024/01/03 11:34:43;;;;;;;811.45;744.72;;;9.50;99.90;;;;;;5047132;28;20056;-84
2024/01/03 11:37:11;;;;;;;833.70;765.15;;;9.60;99.90;;;;;;5027676;28;20052;-84
2024/01/03 11:39:42;;;;;;;814.80;749.17;;;9.70;99.90;;;;;;5045362;28;20107;-84
2024/01/03 11:42:09;;;;;;;828.33;761.50;;;9.80;99.90;;;;;;5047294;28;20033;-84
2024/01/03 11:44:35;;;;;;;830.15;762.72;;;10.00;99.90;;;;;;5045001;28;20049;-84
2024/01/03 11:47:04;;;;;;;831.60;763.58;;;10.00;99.90;;;;;;5042423;28;20477;-84
2024/01/03 11:49:30;;;;;;;837.03;768.58;;;10.10;99.90;;;;;;5032043;28;20136;-84
2024/01/03 11:51:57;;;;;;;796.45;732.58;;;10.20;99.90;;;;;;5045674;28;20040;-84
2024/01/03 11:54:24;;;;;;;829.58;760.33;;;10.30;99.90;;;;;;5046158;28;20154;-84
2024/01/03 11:56:50;;;;;;;736.13;678.53;;;10.20;99.90;;;;;;5044999;28;20049;-84
2024/01/03 11:59:20;;;;;;;664.47;612.97;;;10.20;99.90;;;;;;5027003;28;20139;-85
2024/01/03 12:01:59;;;;;;;671.60;620.30;;;10.20;99.90;;;;;;5017350;28;20055;-84
2024/01/03 12:04:26;;;;;;;669.03;618.05;;;10.10;99.90;;;;;;5029305;28;20053;-84
2024/01/03 12:06:59;;;;;;;711.08;655.75;;;9.90;99.90;;;;;;5027152;28;20056;-85
2024/01/03 12:09:31;;;;;;;726.40;670.67;;;9.90;99.90;;;;;;5045032;28;20414;-84
2024/01/03 12:11:57;;;;;;;801.35;737.70;;;9.80;99.90;;;;;;5044987;28;20053;-85
2024/01/03 12:14:23;;;;;;;808.83;743.53;;;9.70;99.90;;;;;;5040961;28;20045;-83